sensor_id;sensor_type;location;lat;lon;timestamp;P1;durP1;ratioP1;P2;durP2;ratioP2
68386;SDS011;55338;43.062;25.624;2023-02-28T00:01:19;16.77;;;8.65;;
68386;SDS011;55338;43.062;25.624;2023-02-28T00:03:45;14.38;;;8.23;;
68386;SDS011;55338;43.062;25.624;2023-02-28T00:06:11;17.55;;;8.25;;
68386;SDS011;55338;43.062;25.624;2023-02-28T00:08:37;14.75;;;8.40;;
68386;SDS011;55338;43.062;25.624;2023-02-28T00:11:03;14.98;;;8.43;;
68386;SDS011;55338;43.062;25.624;2023-02-28T00:13:39;15.95;;;8.43;;
68386;SDS011;55338;43.062;25.624;2023-02-28T00:16:10;16.50;;;8.20;;
68386;SDS011;55338;43.062;25.624;2023-02-28T00:18:38;16.45;;;8.68;;
68386;SDS011;55338;43.062;25.624;2023-02-28T00:21:04;16.00;;;8.00;;
68386;SDS011;55338;43.062;25.624;2023-02-28T00:23:30;14.63;;;8.35;;
68386;SDS011;55338;43.062;25.624;2023-02-28T00:25:57;16.63;;;9.10;;
68386;SDS011;55338;43.062;25.624;2023-02-28T00:28:22;17.67;;;8.50;;
68386;SDS011;55338;43.062;25.624;2023-02-28T00:30:48;16.98;;;8.57;;
68386;SDS011;55338;43.062;25.624;2023-02-28T00:33:15;15.45;;;8.38;;
68386;SDS011;55338;43.062;25.624;2023-02-28T00:35:41;16.23;;;7.95;;
68386;SDS011;55338;43.062;25.624;2023-02-28T00:38:07;18.63;;;9.40;;
68386;SDS011;55338;43.062;25.624;2023-02-28T00:40:33;17.40;;;9.45;;
68386;SDS011;55338;43.062;25.624;2023-02-28T00:42:59;16.10;;;8.63;;
68386;SDS011;55338;43.062;25.624;2023-02-28T00:45:26;15.93;;;8.85;;
68386;SDS011;55338;43.062;25.624;2023-02-28T00:47:52;17.27;;;9.75;;
68386;SDS011;55338;43.062;25.624;2023-02-28T00:50:19;17.53;;;9.70;;
68386;SDS011;55338;43.062;25.624;2023-02-28T00:52:45;17.75;;;10.15;;
68386;SDS011;55338;43.062;25.624;2023-02-28T00:55:12;20.13;;;9.98;;
68386;SDS011;55338;43.062;25.624;2023-02-28T00:57:38;19.08;;;10.23;;
68386;SDS011;55338;43.062;25.624;2023-02-28T01:00:05;21.33;;;9.97;;
68386;SDS011;55338;43.062;25.624;2023-02-28T01:02:31;18.92;;;10.15;;
68386;SDS011;55338;43.062;25.624;2023-02-28T01:04:57;18.05;;;10.50;;
68386;SDS011;55338;43.062;25.624;2023-02-28T01:07:23;17.20;;;9.37;;
68386;SDS011;55338;43.062;25.624;2023-02-28T01:09:48;16.10;;;9.48;;
68386;SDS011;55338;43.062;25.624;2023-02-28T01:12:15;18.60;;;10.10;;
68386;SDS011;55338;43.062;25.624;2023-02-28T01:14:41;19.25;;;10.02;;
68386;SDS011;55338;43.062;25.624;2023-02-28T01:17:07;20.02;;;10.75;;
68386;SDS011;55338;43.062;25.624;2023-02-28T01:19:33;21.08;;;10.70;;
68386;SDS011;55338;43.062;25.624;2023-02-28T01:22:01;19.98;;;10.95;;
68386;SDS011;55338;43.062;25.624;2023-02-28T01:24:27;18.85;;;9.73;;
68386;SDS011;55338;43.062;25.624;2023-02-28T01:26:53;20.77;;;10.65;;
68386;SDS011;55338;43.062;25.624;2023-02-28T01:29:19;17.67;;;8.82;;
68386;SDS011;55338;43.062;25.624;2023-02-28T01:31:45;17.60;;;9.43;;
68386;SDS011;55338;43.062;25.624;2023-02-28T01:34:10;18.23;;;9.50;;
68386;SDS011;55338;43.062;25.624;2023-02-28T01:36:36;18.73;;;9.93;;
68386;SDS011;55338;43.062;25.624;2023-02-28T01:39:02;20.13;;;9.82;;
68386;SDS011;55338;43.062;25.624;2023-02-28T01:41:29;20.83;;;10.75;;
68386;SDS011;55338;43.062;25.624;2023-02-28T01:46:31;22.08;;;11.07;;
68386;SDS011;55338;43.062;25.624;2023-02-28T01:51:31;19.80;;;10.05;;
68386;SDS011;55338;43.062;25.624;2023-02-28T01:54:30;20.98;;;10.73;;
68386;SDS011;55338;43.062;25.624;2023-02-28T01:57:01;20.48;;;10.55;;
68386;SDS011;55338;43.062;25.624;2023-02-28T01:59:59;24.05;;;12.15;;
68386;SDS011;55338;43.062;25.624;2023-02-28T02:02:30;20.20;;;10.73;;
68386;SDS011;55338;43.062;25.624;2023-02-28T02:05:03;19.02;;;10.85;;
68386;SDS011;55338;43.062;25.624;2023-02-28T02:07:36;22.58;;;10.48;;
68386;SDS011;55338;43.062;25.624;2023-02-28T02:10:15;20.02;;;10.30;;
68386;SDS011;55338;43.062;25.624;2023-02-28T02:18:18;20.83;;;10.30;;
68386;SDS011;55338;43.062;25.624;2023-02-28T02:29:09;16.45;;;8.68;;
68386;SDS011;55338;43.062;25.624;2023-02-28T02:37:02;17.55;;;8.70;;
68386;SDS011;55338;43.062;25.624;2023-02-28T02:42:28;16.77;;;7.85;;
68386;SDS011;55338;43.062;25.624;2023-02-28T02:45:07;17.60;;;8.80;;
68386;SDS011;55338;43.062;25.624;2023-02-28T02:47:37;16.83;;;9.07;;
68386;SDS011;55338;43.062;25.624;2023-02-28T02:50:05;17.75;;;6.93;;
68386;SDS011;55338;43.062;25.624;2023-02-28T02:52:39;16.92;;;8.48;;
68386;SDS011;55338;43.062;25.624;2023-02-28T02:55:10;17.00;;;7.93;;
68386;SDS011;55338;43.062;25.624;2023-02-28T02:57:49;16.50;;;7.88;;
68386;SDS011;55338;43.062;25.624;2023-02-28T03:00:23;16.85;;;8.27;;
68386;SDS011;55338;43.062;25.624;2023-02-28T03:02:54;12.70;;;6.70;;
68386;SDS011;55338;43.062;25.624;2023-02-28T03:05:29;15.50;;;7.40;;
68386;SDS011;55338;43.062;25.624;2023-02-28T03:08:04;14.55;;;6.82;;
68386;SDS011;55338;43.062;25.624;2023-02-28T03:10:33;18.65;;;7.00;;
68386;SDS011;55338;43.062;25.624;2023-02-28T03:13:10;14.32;;;6.78;;
68386;SDS011;55338;43.062;25.624;2023-02-28T03:30:02;15.35;;;6.72;;
68386;SDS011;55338;43.062;25.624;2023-02-28T03:35:06;13.63;;;5.65;;
68386;SDS011;55338;43.062;25.624;2023-02-28T03:37:40;11.80;;;5.55;;
68386;SDS011;55338;43.062;25.624;2023-02-28T03:40:13;11.38;;;5.32;;
68386;SDS011;55338;43.062;25.624;2023-02-28T03:42:43;13.48;;;6.15;;
68386;SDS011;55338;43.062;25.624;2023-02-28T03:45:17;12.95;;;6.03;;
68386;SDS011;55338;43.062;25.624;2023-02-28T03:47:48;13.40;;;6.00;;
68386;SDS011;55338;43.062;25.624;2023-02-28T03:50:20;12.27;;;5.65;;
68386;SDS011;55338;43.062;25.624;2023-02-28T03:52:54;11.35;;;5.30;;
68386;SDS011;55338;43.062;25.624;2023-02-28T03:55:32;12.85;;;5.45;;
68386;SDS011;55338;43.062;25.624;2023-02-28T03:58:26;14.63;;;6.40;;
68386;SDS011;55338;43.062;25.624;2023-02-28T04:01:20;13.85;;;5.72;;
68386;SDS011;55338;43.062;25.624;2023-02-28T04:04:00;13.20;;;5.22;;
68386;SDS011;55338;43.062;25.624;2023-02-28T04:06:27;10.98;;;5.53;;
68386;SDS011;55338;43.062;25.624;2023-02-28T04:08:57;15.38;;;6.32;;
68386;SDS011;55338;43.062;25.624;2023-02-28T04:11:23;13.77;;;6.03;;
68386;SDS011;55338;43.062;25.624;2023-02-28T04:14:01;14.35;;;6.13;;
68386;SDS011;55338;43.062;25.624;2023-02-28T04:16:28;14.80;;;6.47;;
68386;SDS011;55338;43.062;25.624;2023-02-28T04:18:54;10.40;;;4.97;;
68386;SDS011;55338;43.062;25.624;2023-02-28T04:21:27;15.20;;;6.13;;
68386;SDS011;55338;43.062;25.624;2023-02-28T04:23:57;12.45;;;5.78;;
68386;SDS011;55338;43.062;25.624;2023-02-28T04:28:56;12.43;;;5.70;;
68386;SDS011;55338;43.062;25.624;2023-02-28T04:31:23;13.48;;;6.20;;
68386;SDS011;55338;43.062;25.624;2023-02-28T04:33:49;12.15;;;5.63;;
68386;SDS011;55338;43.062;25.624;2023-02-28T04:36:15;13.32;;;5.78;;
68386;SDS011;55338;43.062;25.624;2023-02-28T04:38:43;10.43;;;4.90;;
68386;SDS011;55338;43.062;25.624;2023-02-28T04:41:10;11.07;;;5.28;;
68386;SDS011;55338;43.062;25.624;2023-02-28T04:43:36;11.38;;;4.57;;
68386;SDS011;55338;43.062;25.624;2023-02-28T04:46:03;11.80;;;5.28;;
68386;SDS011;55338;43.062;25.624;2023-02-28T04:48:31;10.38;;;5.03;;
68386;SDS011;55338;43.062;25.624;2023-02-28T04:51:00;11.35;;;5.28;;
68386;SDS011;55338;43.062;25.624;2023-02-28T04:53:27;12.60;;;5.22;;
68386;SDS011;55338;43.062;25.624;2023-02-28T04:55:54;10.52;;;5.18;;
68386;SDS011;55338;43.062;25.624;2023-02-28T04:58:21;12.90;;;5.78;;
68386;SDS011;55338;43.062;25.624;2023-02-28T05:00:49;12.57;;;5.32;;
68386;SDS011;55338;43.062;25.624;2023-02-28T05:03:19;11.75;;;4.95;;
68386;SDS011;55338;43.062;25.624;2023-02-28T05:05:46;12.45;;;5.20;;
68386;SDS011;55338;43.062;25.624;2023-02-28T05:08:12;11.55;;;4.95;;
68386;SDS011;55338;43.062;25.624;2023-02-28T05:10:37;11.57;;;5.20;;
68386;SDS011;55338;43.062;25.624;2023-02-28T05:13:03;11.20;;;5.10;;
68386;SDS011;55338;43.062;25.624;2023-02-28T05:15:29;11.80;;;5.40;;
68386;SDS011;55338;43.062;25.624;2023-02-28T05:17:55;9.77;;;4.63;;
68386;SDS011;55338;43.062;25.624;2023-02-28T05:20:21;9.27;;;4.30;;
68386;SDS011;55338;43.062;25.624;2023-02-28T05:22:46;9.50;;;4.30;;
68386;SDS011;55338;43.062;25.624;2023-02-28T05:25:17;11.73;;;5.18;;
68386;SDS011;55338;43.062;25.624;2023-02-28T05:27:44;11.02;;;4.50;;
68386;SDS011;55338;43.062;25.624;2023-02-28T05:30:11;11.80;;;4.70;;
68386;SDS011;55338;43.062;25.624;2023-02-28T05:32:38;10.40;;;4.43;;
68386;SDS011;55338;43.062;25.624;2023-02-28T05:35:07;12.07;;;4.82;;
68386;SDS011;55338;43.062;25.624;2023-02-28T05:37:34;9.88;;;4.63;;
68386;SDS011;55338;43.062;25.624;2023-02-28T05:40:00;11.27;;;5.07;;
68386;SDS011;55338;43.062;25.624;2023-02-28T05:42:26;9.87;;;5.03;;
68386;SDS011;55338;43.062;25.624;2023-02-28T05:44:52;12.25;;;4.85;;
68386;SDS011;55338;43.062;25.624;2023-02-28T05:47:17;11.27;;;4.90;;
68386;SDS011;55338;43.062;25.624;2023-02-28T05:49:43;11.55;;;5.07;;
68386;SDS011;55338;43.062;25.624;2023-02-28T05:52:09;10.85;;;4.80;;
68386;SDS011;55338;43.062;25.624;2023-02-28T05:54:35;9.80;;;4.57;;
68386;SDS011;55338;43.062;25.624;2023-02-28T05:57:02;14.20;;;5.72;;
68386;SDS011;55338;43.062;25.624;2023-02-28T05:59:28;10.50;;;4.60;;
68386;SDS011;55338;43.062;25.624;2023-02-28T06:02:26;11.15;;;4.78;;
68386;SDS011;55338;43.062;25.624;2023-02-28T06:05:04;14.55;;;5.90;;
68386;SDS011;55338;43.062;25.624;2023-02-28T06:07:30;13.73;;;5.63;;
68386;SDS011;55338;43.062;25.624;2023-02-28T06:09:56;10.82;;;5.40;;
68386;SDS011;55338;43.062;25.624;2023-02-28T06:12:21;13.02;;;5.20;;
68386;SDS011;55338;43.062;25.624;2023-02-28T06:14:47;13.00;;;5.10;;
68386;SDS011;55338;43.062;25.624;2023-02-28T06:17:14;13.55;;;5.30;;
68386;SDS011;55338;43.062;25.624;2023-02-28T06:19:43;10.57;;;4.55;;
68386;SDS011;55338;43.062;25.624;2023-02-28T06:22:08;15.07;;;4.73;;
68386;SDS011;55338;43.062;25.624;2023-02-28T06:24:34;13.85;;;4.88;;
68386;SDS011;55338;43.062;25.624;2023-02-28T06:27:00;10.93;;;5.30;;
68386;SDS011;55338;43.062;25.624;2023-02-28T06:29:30;10.15;;;4.70;;
68386;SDS011;55338;43.062;25.624;2023-02-28T06:32:00;15.38;;;4.72;;
68386;SDS011;55338;43.062;25.624;2023-02-28T06:34:26;12.15;;;5.07;;
68386;SDS011;55338;43.062;25.624;2023-02-28T06:36:52;12.67;;;6.47;;
68386;SDS011;55338;43.062;25.624;2023-02-28T06:39:18;12.20;;;6.20;;
68386;SDS011;55338;43.062;25.624;2023-02-28T06:41:44;10.65;;;5.53;;
68386;SDS011;55338;43.062;25.624;2023-02-28T06:44:13;10.65;;;4.40;;
68386;SDS011;55338;43.062;25.624;2023-02-28T06:46:41;11.07;;;4.65;;
68386;SDS011;55338;43.062;25.624;2023-02-28T06:49:08;8.18;;;3.90;;
68386;SDS011;55338;43.062;25.624;2023-02-28T06:51:36;10.93;;;5.15;;
68386;SDS011;55338;43.062;25.624;2023-02-28T06:54:04;12.02;;;4.93;;
68386;SDS011;55338;43.062;25.624;2023-02-28T06:56:30;20.35;;;10.00;;
68386;SDS011;55338;43.062;25.624;2023-02-28T06:58:56;17.07;;;8.07;;
68386;SDS011;55338;43.062;25.624;2023-02-28T07:01:22;11.45;;;5.50;;
68386;SDS011;55338;43.062;25.624;2023-02-28T07:03:49;12.82;;;6.80;;
68386;SDS011;55338;43.062;25.624;2023-02-28T07:06:18;10.65;;;5.00;;
68386;SDS011;55338;43.062;25.624;2023-02-28T07:08:44;12.30;;;5.33;;
68386;SDS011;55338;43.062;25.624;2023-02-28T07:11:11;12.45;;;5.25;;
68386;SDS011;55338;43.062;25.624;2023-02-28T07:13:37;10.27;;;4.55;;
68386;SDS011;55338;43.062;25.624;2023-02-28T07:16:05;12.13;;;4.57;;
68386;SDS011;55338;43.062;25.624;2023-02-28T07:18:34;10.38;;;5.35;;
68386;SDS011;55338;43.062;25.624;2023-02-28T07:21:02;13.63;;;5.13;;
68386;SDS011;55338;43.062;25.624;2023-02-28T07:23:30;11.88;;;5.97;;
68386;SDS011;55338;43.062;25.624;2023-02-28T07:25:56;10.88;;;4.55;;
68386;SDS011;55338;43.062;25.624;2023-02-28T07:28:22;9.30;;;4.57;;
68386;SDS011;55338;43.062;25.624;2023-02-28T07:30:48;9.27;;;4.65;;
68386;SDS011;55338;43.062;25.624;2023-02-28T07:33:14;11.70;;;3.90;;
68386;SDS011;55338;43.062;25.624;2023-02-28T07:35:45;8.90;;;3.22;;
68386;SDS011;55338;43.062;25.624;2023-02-28T07:38:11;9.55;;;3.90;;
68386;SDS011;55338;43.062;25.624;2023-02-28T07:40:38;7.63;;;4.13;;
68386;SDS011;55338;43.062;25.624;2023-02-28T07:43:04;9.20;;;4.15;;
68386;SDS011;55338;43.062;25.624;2023-02-28T07:45:33;8.82;;;3.90;;
68386;SDS011;55338;43.062;25.624;2023-02-28T07:48:00;10.25;;;4.00;;
68386;SDS011;55338;43.062;25.624;2023-02-28T07:50:26;8.40;;;4.15;;
68386;SDS011;55338;43.062;25.624;2023-02-28T07:52:56;12.00;;;3.70;;
68386;SDS011;55338;43.062;25.624;2023-02-28T07:55:23;9.35;;;3.78;;
68386;SDS011;55338;43.062;25.624;2023-02-28T07:57:49;7.60;;;3.40;;
68386;SDS011;55338;43.062;25.624;2023-02-28T08:00:15;13.43;;;3.67;;
68386;SDS011;55338;43.062;25.624;2023-02-28T08:02:43;15.65;;;4.03;;
68386;SDS011;55338;43.062;25.624;2023-02-28T08:05:09;8.45;;;3.60;;
68386;SDS011;55338;43.062;25.624;2023-02-28T08:07:37;9.57;;;3.80;;
68386;SDS011;55338;43.062;25.624;2023-02-28T08:10:04;8.03;;;4.00;;
68386;SDS011;55338;43.062;25.624;2023-02-28T08:12:30;9.73;;;4.05;;
68386;SDS011;55338;43.062;25.624;2023-02-28T08:14:56;11.38;;;3.88;;
68386;SDS011;55338;43.062;25.624;2023-02-28T08:17:22;8.83;;;4.13;;
68386;SDS011;55338;43.062;25.624;2023-02-28T08:19:48;11.23;;;4.60;;
68386;SDS011;55338;43.062;25.624;2023-02-28T08:22:13;12.30;;;4.15;;
68386;SDS011;55338;43.062;25.624;2023-02-28T08:24:40;10.02;;;5.20;;
68386;SDS011;55338;43.062;25.624;2023-02-28T08:27:07;9.73;;;4.85;;
68386;SDS011;55338;43.062;25.624;2023-02-28T08:29:33;8.40;;;3.55;;
68386;SDS011;55338;43.062;25.624;2023-02-28T08:32:01;13.00;;;3.92;;
68386;SDS011;55338;43.062;25.624;2023-02-28T08:34:27;9.67;;;4.27;;
68386;SDS011;55338;43.062;25.624;2023-02-28T08:36:57;8.60;;;3.92;;
68386;SDS011;55338;43.062;25.624;2023-02-28T08:39:23;11.10;;;4.53;;
68386;SDS011;55338;43.062;25.624;2023-02-28T08:41:49;10.60;;;4.60;;
68386;SDS011;55338;43.062;25.624;2023-02-28T08:44:14;8.93;;;4.55;;
68386;SDS011;55338;43.062;25.624;2023-02-28T08:46:40;13.90;;;4.75;;
68386;SDS011;55338;43.062;25.624;2023-02-28T08:49:06;9.13;;;4.80;;
68386;SDS011;55338;43.062;25.624;2023-02-28T08:51:32;12.52;;;4.78;;
68386;SDS011;55338;43.062;25.624;2023-02-28T08:53:59;10.07;;;4.90;;
68386;SDS011;55338;43.062;25.624;2023-02-28T08:56:26;12.65;;;4.78;;
68386;SDS011;55338;43.062;25.624;2023-02-28T08:58:53;10.50;;;5.15;;
68386;SDS011;55338;43.062;25.624;2023-02-28T09:01:23;9.23;;;5.05;;
68386;SDS011;55338;43.062;25.624;2023-02-28T09:03:55;11.00;;;5.35;;
68386;SDS011;55338;43.062;25.624;2023-02-28T09:06:24;11.35;;;5.63;;
68386;SDS011;55338;43.062;25.624;2023-02-28T09:08:53;11.93;;;5.95;;
68386;SDS011;55338;43.062;25.624;2023-02-28T09:11:23;10.88;;;5.57;;
68386;SDS011;55338;43.062;25.624;2023-02-28T09:13:50;13.88;;;5.75;;
68386;SDS011;55338;43.062;25.624;2023-02-28T09:16:17;13.40;;;5.82;;
68386;SDS011;55338;43.062;25.624;2023-02-28T09:18:43;13.02;;;5.80;;
68386;SDS011;55338;43.062;25.624;2023-02-28T09:21:10;10.70;;;6.15;;
68386;SDS011;55338;43.062;25.624;2023-02-28T09:23:43;16.67;;;6.68;;
68386;SDS011;55338;43.062;25.624;2023-02-28T09:26:14;16.02;;;6.18;;
68386;SDS011;55338;43.062;25.624;2023-02-28T09:28:44;15.32;;;6.22;;
68386;SDS011;55338;43.062;25.624;2023-02-28T09:31:15;12.38;;;5.75;;
68386;SDS011;55338;43.062;25.624;2023-02-28T09:33:46;11.30;;;6.00;;
68386;SDS011;55338;43.062;25.624;2023-02-28T09:36:15;11.13;;;5.28;;
68386;SDS011;55338;43.062;25.624;2023-02-28T09:38:42;10.93;;;5.60;;
68386;SDS011;55338;43.062;25.624;2023-02-28T09:41:13;12.57;;;6.13;;
68386;SDS011;55338;43.062;25.624;2023-02-28T09:44:02;12.07;;;5.88;;
68386;SDS011;55338;43.062;25.624;2023-02-28T09:49:00;11.52;;;6.38;;
68386;SDS011;55338;43.062;25.624;2023-02-28T09:51:34;10.63;;;5.95;;
68386;SDS011;55338;43.062;25.624;2023-02-28T09:54:15;11.82;;;6.70;;
68386;SDS011;55338;43.062;25.624;2023-02-28T09:56:51;12.00;;;6.13;;
68386;SDS011;55338;43.062;25.624;2023-02-28T10:04:57;11.82;;;5.25;;
68386;SDS011;55338;43.062;25.624;2023-02-28T10:09:57;13.48;;;6.07;;
68386;SDS011;55338;43.062;25.624;2023-02-28T10:12:25;16.38;;;5.95;;
68386;SDS011;55338;43.062;25.624;2023-02-28T10:14:52;12.23;;;5.55;;
68386;SDS011;55338;43.062;25.624;2023-02-28T10:17:24;15.00;;;6.38;;
68386;SDS011;55338;43.062;25.624;2023-02-28T10:20:02;13.98;;;6.35;;
68386;SDS011;55338;43.062;25.624;2023-02-28T10:25:16;13.57;;;6.13;;
68386;SDS011;55338;43.062;25.624;2023-02-28T10:27:44;10.98;;;5.60;;
68386;SDS011;55338;43.062;25.624;2023-02-28T10:30:11;10.85;;;5.45;;
68386;SDS011;55338;43.062;25.624;2023-02-28T10:32:38;11.02;;;5.85;;
68386;SDS011;55338;43.062;25.624;2023-02-28T10:37:43;12.07;;;5.18;;
68386;SDS011;55338;43.062;25.624;2023-02-28T10:42:57;13.65;;;5.55;;
68386;SDS011;55338;43.062;25.624;2023-02-28T10:45:35;10.70;;;4.63;;
68386;SDS011;55338;43.062;25.624;2023-02-28T10:50:55;12.35;;;4.68;;
68386;SDS011;55338;43.062;25.624;2023-02-28T11:03:59;11.05;;;5.13;;
68386;SDS011;55338;43.062;25.624;2023-02-28T11:06:26;12.50;;;5.20;;
68386;SDS011;55338;43.062;25.624;2023-02-28T11:09:01;10.48;;;5.40;;
68386;SDS011;55338;43.062;25.624;2023-02-28T11:11:43;13.88;;;5.70;;
68386;SDS011;55338;43.062;25.624;2023-02-28T11:14:24;11.47;;;5.40;;
68386;SDS011;55338;43.062;25.624;2023-02-28T11:16:53;13.10;;;5.30;;
68386;SDS011;55338;43.062;25.624;2023-02-28T11:19:29;10.75;;;5.28;;
68386;SDS011;55338;43.062;25.624;2023-02-28T11:22:03;13.23;;;5.57;;
68386;SDS011;55338;43.062;25.624;2023-02-28T11:24:35;12.40;;;6.00;;
68386;SDS011;55338;43.062;25.624;2023-02-28T11:27:11;12.80;;;5.73;;
68386;SDS011;55338;43.062;25.624;2023-02-28T11:29:55;12.27;;;5.75;;
68386;SDS011;55338;43.062;25.624;2023-02-28T11:32:22;12.35;;;5.00;;
68386;SDS011;55338;43.062;25.624;2023-02-28T11:37:35;19.45;;;6.53;;
68386;SDS011;55338;43.062;25.624;2023-02-28T11:40:01;15.57;;;6.50;;
68386;SDS011;55338;43.062;25.624;2023-02-28T11:43:06;14.93;;;5.47;;
68386;SDS011;55338;43.062;25.624;2023-02-28T11:48:16;13.07;;;6.38;;
68386;SDS011;55338;43.062;25.624;2023-02-28T11:53:46;11.63;;;5.57;;
68386;SDS011;55338;43.062;25.624;2023-02-28T11:56:54;17.75;;;6.40;;
68386;SDS011;55338;43.062;25.624;2023-02-28T11:59:29;13.48;;;5.70;;
68386;SDS011;55338;43.062;25.624;2023-02-28T12:05:16;23.80;;;10.75;;
68386;SDS011;55338;43.062;25.624;2023-02-28T12:07:51;22.30;;;9.97;;
68386;SDS011;55338;43.062;25.624;2023-02-28T12:10:34;21.30;;;9.95;;
68386;SDS011;55338;43.062;25.624;2023-02-28T12:13:37;18.85;;;9.10;;
68386;SDS011;55338;43.062;25.624;2023-02-28T12:27:00;14.80;;;7.15;;
68386;SDS011;55338;43.062;25.624;2023-02-28T12:29:34;19.10;;;7.80;;
68386;SDS011;55338;43.062;25.624;2023-02-28T12:34:52;22.63;;;9.05;;
68386;SDS011;55338;43.062;25.624;2023-02-28T12:37:47;25.60;;;9.13;;
68386;SDS011;55338;43.062;25.624;2023-02-28T12:43:33;16.57;;;8.07;;
68386;SDS011;55338;43.062;25.624;2023-02-28T12:46:07;30.42;;;11.95;;
68386;SDS011;55338;43.062;25.624;2023-02-28T12:48:46;21.10;;;9.98;;
68386;SDS011;55338;43.062;25.624;2023-02-28T12:51:17;20.30;;;9.48;;
68386;SDS011;55338;43.062;25.624;2023-02-28T12:53:49;26.40;;;10.50;;
68386;SDS011;55338;43.062;25.624;2023-02-28T12:57:02;21.37;;;10.57;;
68386;SDS011;55338;43.062;25.624;2023-02-28T13:09:56;24.60;;;10.52;;
68386;SDS011;55338;43.062;25.624;2023-02-28T13:12:24;21.92;;;10.73;;
68386;SDS011;55338;43.062;25.624;2023-02-28T13:15:00;18.52;;;9.77;;
68386;SDS011;55338;43.062;25.624;2023-02-28T13:17:30;21.87;;;11.67;;
68386;SDS011;55338;43.062;25.624;2023-02-28T13:19:57;29.45;;;13.65;;
68386;SDS011;55338;43.062;25.624;2023-02-28T13:24:54;28.63;;;12.80;;
68386;SDS011;55338;43.062;25.624;2023-02-28T13:29:50;23.80;;;10.63;;
68386;SDS011;55338;43.062;25.624;2023-02-28T13:50:14;19.85;;;9.88;;
68386;SDS011;55338;43.062;25.624;2023-02-28T14:01:28;24.30;;;10.87;;
68386;SDS011;55338;43.062;25.624;2023-02-28T14:07:23;27.90;;;12.35;;
68386;SDS011;55338;43.062;25.624;2023-02-28T14:10:06;28.25;;;13.20;;
68386;SDS011;55338;43.062;25.624;2023-02-28T14:18:15;22.30;;;11.10;;
68386;SDS011;55338;43.062;25.624;2023-02-28T14:21:14;18.77;;;9.20;;
68386;SDS011;55338;43.062;25.624;2023-02-28T14:37:41;19.98;;;9.57;;
68386;SDS011;55338;43.062;25.624;2023-02-28T14:40:14;27.77;;;13.52;;
68386;SDS011;55338;43.062;25.624;2023-02-28T14:42:46;28.40;;;13.97;;
68386;SDS011;55338;43.062;25.624;2023-02-28T14:45:24;23.15;;;11.23;;
68386;SDS011;55338;43.062;25.624;2023-02-28T14:47:55;28.77;;;11.60;;
68386;SDS011;55338;43.062;25.624;2023-02-28T14:50:26;24.10;;;11.25;;
68386;SDS011;55338;43.062;25.624;2023-02-28T14:52:56;21.67;;;10.27;;
68386;SDS011;55338;43.062;25.624;2023-02-28T14:55:26;18.10;;;9.13;;
68386;SDS011;55338;43.062;25.624;2023-02-28T14:58:00;18.20;;;8.85;;
68386;SDS011;55338;43.062;25.624;2023-02-28T15:00:30;23.45;;;9.25;;
68386;SDS011;55338;43.062;25.624;2023-02-28T15:02:58;24.52;;;9.98;;
68386;SDS011;55338;43.062;25.624;2023-02-28T15:05:29;22.75;;;11.25;;
68386;SDS011;55338;43.062;25.624;2023-02-28T15:08:01;24.00;;;10.77;;
68386;SDS011;55338;43.062;25.624;2023-02-28T15:10:30;16.35;;;7.90;;
68386;SDS011;55338;43.062;25.624;2023-02-28T15:12:57;23.20;;;10.52;;
68386;SDS011;55338;43.062;25.624;2023-02-28T15:15:29;21.73;;;8.95;;
68386;SDS011;55338;43.062;25.624;2023-02-28T15:18:15;16.52;;;8.20;;
68386;SDS011;55338;43.062;25.624;2023-02-28T15:20:47;18.40;;;7.97;;
68386;SDS011;55338;43.062;25.624;2023-02-28T15:23:13;19.15;;;8.52;;
68386;SDS011;55338;43.062;25.624;2023-02-28T15:25:40;18.13;;;9.02;;
68386;SDS011;55338;43.062;25.624;2023-02-28T15:28:09;19.33;;;9.00;;
68386;SDS011;55338;43.062;25.624;2023-02-28T15:30:49;19.55;;;10.05;;
68386;SDS011;55338;43.062;25.624;2023-02-28T15:33:21;23.65;;;10.85;;
68386;SDS011;55338;43.062;25.624;2023-02-28T15:35:50;17.88;;;8.27;;
68386;SDS011;55338;43.062;25.624;2023-02-28T15:40:53;13.18;;;6.95;;
68386;SDS011;55338;43.062;25.624;2023-02-28T15:46:00;16.05;;;7.95;;
68386;SDS011;55338;43.062;25.624;2023-02-28T15:48:28;17.15;;;7.30;;
68386;SDS011;55338;43.062;25.624;2023-02-28T15:51:18;15.10;;;7.28;;
68386;SDS011;55338;43.062;25.624;2023-02-28T15:53:50;16.13;;;7.47;;
68386;SDS011;55338;43.062;25.624;2023-02-28T15:56:28;13.98;;;7.22;;
68386;SDS011;55338;43.062;25.624;2023-02-28T15:58:57;16.40;;;7.85;;
68386;SDS011;55338;43.062;25.624;2023-02-28T16:01:39;18.08;;;9.43;;
68386;SDS011;55338;43.062;25.624;2023-02-28T16:04:06;13.82;;;6.85;;
68386;SDS011;55338;43.062;25.624;2023-02-28T16:09:10;14.52;;;6.43;;
68386;SDS011;55338;43.062;25.624;2023-02-28T16:11:46;17.20;;;7.40;;
68386;SDS011;55338;43.062;25.624;2023-02-28T16:14:21;13.07;;;6.38;;
68386;SDS011;55338;43.062;25.624;2023-02-28T16:16:50;14.35;;;5.32;;
68386;SDS011;55338;43.062;25.624;2023-02-28T16:19:18;14.18;;;5.40;;
68386;SDS011;55338;43.062;25.624;2023-02-28T16:21:44;10.10;;;5.15;;
68386;SDS011;55338;43.062;25.624;2023-02-28T16:24:10;11.95;;;5.57;;
68386;SDS011;55338;43.062;25.624;2023-02-28T16:26:36;11.73;;;5.30;;
68386;SDS011;55338;43.062;25.624;2023-02-28T16:29:13;9.35;;;5.03;;
68386;SDS011;55338;43.062;25.624;2023-02-28T16:31:44;12.05;;;5.28;;
68386;SDS011;55338;43.062;25.624;2023-02-28T16:34:10;11.70;;;4.77;;
68386;SDS011;55338;43.062;25.624;2023-02-28T16:36:36;10.75;;;4.93;;
68386;SDS011;55338;43.062;25.624;2023-02-28T16:39:01;11.37;;;5.63;;
68386;SDS011;55338;43.062;25.624;2023-02-28T16:41:27;10.48;;;4.75;;
68386;SDS011;55338;43.062;25.624;2023-02-28T16:43:54;14.95;;;5.38;;
68386;SDS011;55338;43.062;25.624;2023-02-28T16:46:27;10.88;;;5.40;;
68386;SDS011;55338;43.062;25.624;2023-02-28T16:48:56;10.45;;;5.00;;
68386;SDS011;55338;43.062;25.624;2023-02-28T16:51:22;9.23;;;4.15;;
68386;SDS011;55338;43.062;25.624;2023-02-28T16:53:48;8.85;;;4.07;;
68386;SDS011;55338;43.062;25.624;2023-02-28T16:56:18;9.67;;;4.70;;
68386;SDS011;55338;43.062;25.624;2023-02-28T16:58:46;10.35;;;4.75;;
68386;SDS011;55338;43.062;25.624;2023-02-28T17:01:12;11.95;;;4.85;;
68386;SDS011;55338;43.062;25.624;2023-02-28T17:03:38;11.13;;;5.32;;
68386;SDS011;55338;43.062;25.624;2023-02-28T17:06:05;11.93;;;5.60;;
68386;SDS011;55338;43.062;25.624;2023-02-28T17:08:41;9.35;;;4.72;;
68386;SDS011;55338;43.062;25.624;2023-02-28T17:11:07;9.07;;;3.90;;
68386;SDS011;55338;43.062;25.624;2023-02-28T17:13:34;8.50;;;3.73;;
68386;SDS011;55338;43.062;25.624;2023-02-28T17:15:59;8.93;;;3.97;;
68386;SDS011;55338;43.062;25.624;2023-02-28T17:18:25;7.40;;;3.70;;
68386;SDS011;55338;43.062;25.624;2023-02-28T17:20:53;7.75;;;4.00;;
68386;SDS011;55338;43.062;25.624;2023-02-28T17:23:19;8.52;;;3.70;;
68386;SDS011;55338;43.062;25.624;2023-02-28T17:25:45;10.05;;;3.92;;
68386;SDS011;55338;43.062;25.624;2023-02-28T17:28:18;10.88;;;4.80;;
68386;SDS011;55338;43.062;25.624;2023-02-28T17:30:47;9.68;;;3.97;;
68386;SDS011;55338;43.062;25.624;2023-02-28T17:33:14;8.45;;;4.18;;
68386;SDS011;55338;43.062;25.624;2023-02-28T17:35:40;8.60;;;4.15;;
68386;SDS011;55338;43.062;25.624;2023-02-28T17:38:11;8.63;;;4.33;;